createdAt,value
2022-08-11T00:02:26.850Z,50.47
2022-08-11T00:04:55.912Z,50.20
2022-08-11T00:07:24.695Z,50.35
2022-08-11T00:09:53.438Z,50.64
2022-08-11T00:12:20.758Z,50.77
2022-08-11T00:14:56.651Z,50.70
2022-08-11T00:17:29.400Z,50.77
2022-08-11T00:20:12.447Z,50.77
2022-08-11T00:22:46.273Z,50.93
2022-08-11T00:25:19.266Z,51.13
2022-08-11T00:27:47.441Z,51.10
2022-08-11T00:30:15.964Z,51.41
2022-08-11T00:32:45.672Z,51.40
2022-08-11T00:35:54.508Z,51.63
2022-08-11T00:38:03.619Z,52.13
2022-08-11T00:40:45.583Z,52.06
2022-08-11T00:43:35.368Z,52.00
2022-08-11T00:46:07.894Z,52.30
2022-08-11T00:48:47.768Z,52.40
2022-08-11T00:52:04.841Z,52.67
2022-08-11T00:54:58.310Z,52.54
2022-08-11T00:58:02.774Z,52.67
2022-08-11T01:00:42.339Z,53.01
2022-08-11T01:03:27.269Z,53.29
2022-08-11T01:06:20.142Z,53.57
2022-08-11T01:08:58.307Z,53.51
2022-08-11T01:11:55.891Z,53.81
2022-08-11T01:15:12.935Z,53.72
2022-08-11T01:18:09.040Z,53.88
2022-08-11T01:20:50.825Z,54.06
2022-08-11T01:23:42.502Z,54.03
2022-08-11T01:26:46.326Z,54.53
2022-08-11T01:29:42.229Z,54.63
2022-08-11T01:32:50.540Z,54.79
2022-08-11T01:35:44.946Z,54.53
2022-08-11T01:38:48.693Z,54.65
2022-08-11T01:42:08.112Z,54.64
2022-08-11T01:44:49.683Z,54.86
2022-08-11T01:47:52.575Z,55.20
2022-08-11T01:50:54.855Z,55.22
2022-08-11T01:53:52.664Z,55.21
2022-08-11T01:56:38.091Z,55.21
2022-08-11T01:59:18.112Z,55.38
2022-08-11T02:01:59.937Z,55.65
2022-08-11T02:04:42.334Z,55.68
2022-08-11T02:07:27.088Z,55.70
2022-08-11T02:10:41.628Z,55.72
2022-08-11T02:13:36.830Z,55.96
2022-08-11T02:16:14.290Z,55.90
2022-08-11T02:19:09.338Z,56.03
2022-08-11T02:22:18.821Z,55.73
2022-08-11T02:24:58.567Z,55.58
2022-08-11T02:27:35.072Z,55.74
2022-08-11T02:30:14.168Z,55.81
2022-08-11T02:33:20.870Z,55.96
2022-08-11T02:36:20.156Z,56.03
2022-08-11T02:39:11.346Z,56.30
2022-08-11T02:42:02.833Z,56.08
2022-08-11T02:44:57.505Z,56.05
2022-08-11T02:48:06.458Z,56.28
2022-08-11T02:50:43.042Z,56.42
2022-08-11T02:53:19.991Z,56.92
2022-08-11T02:56:08.791Z,56.85
2022-08-11T02:59:11.977Z,57.09
2022-08-11T03:01:50.403Z,57.21
2022-08-11T03:04:37.839Z,57.17
2022-08-11T03:07:35.069Z,57.64
2022-08-11T03:10:20.758Z,57.58
2022-08-11T03:13:22.832Z,57.62
2022-08-11T03:16:37.430Z,57.72
2022-08-11T03:19:22.057Z,57.87
2022-08-11T03:22:26.489Z,57.87
2022-08-11T03:25:07.915Z,58.03
2022-08-11T03:27:46.997Z,58.38
2022-08-11T03:30:23.728Z,58.39
2022-08-11T03:34:07.014Z,58.67
2022-08-11T03:37:15.971Z,58.87
2022-08-11T03:40:46.935Z,59.43
2022-08-11T03:43:22.548Z,59.22
2022-08-11T03:46:10.925Z,59.14
2022-08-11T03:48:48.996Z,59.14
2022-08-11T03:51:51.614Z,59.44
2022-08-11T03:54:36.438Z,59.82
2022-08-11T03:57:40.865Z,60.39
2022-08-11T04:00:14.943Z,59.88
2022-08-11T04:03:09.739Z,59.83
2022-08-11T04:06:02.463Z,59.65
2022-08-11T04:08:47.665Z,59.87
2022-08-11T04:11:39.162Z,59.65
2022-08-11T04:14:45.894Z,59.77
2022-08-11T04:17:19.662Z,59.77
2022-08-11T04:20:02.119Z,59.79
2022-08-11T04:22:54.278Z,60.01
2022-08-11T04:25:58.955Z,60.38
2022-08-11T04:28:49.825Z,60.23
2022-08-11T04:31:50.517Z,60.40
2022-08-11T04:34:44.683Z,60.18
2022-08-11T04:37:51.256Z,60.21
2022-08-11T04:40:54.285Z,60.19
2022-08-11T04:44:05.893Z,60.28
2022-08-11T04:46:58.456Z,60.16
2022-08-11T04:50:17.517Z,60.04
2022-08-11T04:53:15.213Z,60.00
2022-08-11T04:56:30.796Z,59.89
2022-08-11T04:59:22.191Z,59.47
2022-08-11T05:02:17.375Z,59.42
2022-08-11T05:05:22.369Z,59.14
2022-08-11T05:08:13.515Z,58.89
2022-08-11T05:10:52.226Z,58.78
2022-08-11T05:13:49.125Z,58.49
2022-08-11T05:16:42.835Z,58.42
2022-08-11T05:19:35.560Z,58.02
2022-08-11T05:22:22.879Z,57.50
2022-08-11T05:26:44.983Z,57.63
2022-08-11T05:28:41.074Z,56.99
2022-08-11T05:31:30.869Z,57.00
2022-08-11T05:34:20.649Z,56.79
2022-08-11T05:36:51.843Z,56.48
2022-08-11T05:39:42.763Z,56.28
2022-08-11T05:42:30.230Z,56.16
2022-08-11T05:45:58.177Z,55.91
2022-08-11T05:48:38.010Z,55.08
2022-08-11T05:51:30.286Z,54.66
2022-08-11T05:54:28.651Z,54.10
2022-08-11T05:57:02.221Z,53.68
2022-08-11T05:59:31.361Z,53.15
2022-08-11T06:02:03.646Z,52.61
2022-08-11T06:04:30.954Z,52.35
2022-08-11T06:06:58.926Z,52.15
2022-08-11T06:09:27.665Z,52.19
2022-08-11T06:11:59.782Z,51.83
2022-08-11T06:14:27.615Z,51.35
2022-08-11T06:17:01.727Z,51.09
2022-08-11T06:19:35.564Z,50.91
2022-08-11T06:22:04.329Z,50.67
2022-08-11T06:24:32.453Z,50.29
2022-08-11T06:27:12.340Z,50.41
2022-08-11T06:29:55.381Z,49.75
2022-08-11T06:32:26.308Z,49.16
2022-08-11T06:35:10.235Z,48.17
2022-08-11T06:37:58.730Z,48.63
2022-08-11T06:40:31.352Z,48.48
2022-08-11T06:43:06.999Z,48.55
2022-08-11T06:45:57.760Z,47.46
2022-08-11T06:48:25.450Z,47.51
2022-08-11T06:51:14.460Z,48.25
2022-08-11T06:54:05.669Z,48.01
2022-08-11T06:57:25.889Z,47.01
2022-08-11T07:00:01.990Z,46.90
2022-08-11T07:02:36.125Z,46.59
2022-08-11T07:05:10.506Z,46.09
2022-08-11T07:08:34.366Z,45.96
2022-08-11T07:11:48.874Z,46.37
2022-08-11T07:14:42.191Z,45.86
2022-08-11T07:17:14.558Z,45.61
2022-08-11T07:20:05.220Z,45.18
2022-08-11T07:23:09.896Z,45.25
2022-08-11T07:25:59.381Z,45.39
2022-08-11T07:28:47.533Z,44.68
2022-08-11T07:31:29.197Z,44.40
2022-08-11T07:34:15.897Z,44.15
2022-08-11T07:36:53.867Z,43.01
2022-08-11T07:39:26.656Z,43.45
2022-08-11T07:41:57.239Z,43.80
2022-08-11T07:44:34.248Z,43.70
2022-08-11T07:47:20.751Z,43.57
2022-08-11T07:50:09.042Z,42.85
2022-08-11T07:52:38.383Z,42.02
2022-08-11T07:55:11.980Z,41.83
2022-08-11T07:58:15.348Z,42.17
2022-08-11T08:01:10.190Z,41.94
2022-08-11T08:03:58.400Z,40.86
2022-08-11T08:06:46.180Z,40.04
2022-08-11T08:09:35.344Z,41.01
2022-08-11T08:12:22.597Z,39.62
2022-08-11T08:15:10.052Z,39.90
2022-08-11T08:18:08.982Z,40.69
2022-08-11T08:20:52.156Z,39.52
2022-08-11T08:23:33.562Z,38.51
2022-08-11T08:26:02.509Z,37.58
2022-08-11T08:28:32.494Z,37.67
2022-08-11T08:31:00.298Z,37.29
2022-08-11T08:33:30.425Z,37.08
2022-08-11T08:36:12.524Z,36.49
2022-08-11T08:38:57.849Z,36.11
2022-08-11T08:41:28.306Z,36.39
2022-08-11T08:44:15.154Z,36.07
2022-08-11T08:46:50.658Z,36.22
2022-08-11T08:49:23.197Z,35.82
2022-08-11T08:52:01.151Z,35.98
2022-08-11T08:54:38.132Z,34.29
2022-08-11T08:57:07.908Z,34.08
2022-08-11T08:59:48.766Z,33.63
2022-08-11T09:02:17.451Z,34.54
2022-08-11T09:04:46.891Z,33.72
2022-08-11T09:07:16.897Z,32.63
2022-08-11T09:09:49.271Z,32.68
2022-08-11T09:12:38.098Z,33.34
2022-08-11T09:15:09.204Z,32.10
2022-08-11T09:17:41.379Z,32.01
2022-08-11T09:20:13.688Z,31.22
2022-08-11T09:26:12.311Z,31.81
2022-08-11T09:28:42.501Z,32.17
2022-08-11T09:31:13.225Z,32.00
2022-08-11T09:33:43.052Z,31.49
2022-08-11T09:36:31.265Z,31.01
2022-08-11T09:39:18.717Z,30.93
2022-08-11T09:42:01.672Z,30.71
2022-08-11T09:44:49.566Z,30.26
2022-08-11T09:47:30.225Z,29.91
2022-08-11T09:50:01.151Z,29.46
2022-08-11T09:52:32.519Z,30.01
2022-08-11T09:55:00.476Z,30.67
2022-08-11T09:57:46.358Z,29.38
2022-08-11T10:00:15.371Z,28.95
2022-08-11T10:02:46.151Z,29.82
2022-08-11T10:05:36.175Z,30.64
2022-08-11T10:08:04.660Z,29.64
2022-08-11T10:10:35.933Z,30.13
2022-08-11T10:14:30.651Z,29.04
2022-08-11T10:16:14.701Z,28.17
2022-08-11T10:18:53.022Z,28.77
2022-08-11T10:21:34.603Z,28.12
2022-08-11T10:24:21.584Z,28.09
2022-08-11T10:26:54.390Z,29.01
2022-08-11T10:29:44.469Z,28.86
2022-08-11T10:32:52.254Z,29.02
2022-08-11T10:35:30.565Z,27.71
2022-08-11T10:38:08.948Z,27.57
2022-08-11T10:40:41.388Z,28.45
2022-08-11T10:43:17.674Z,28.01
2022-08-11T10:46:29.943Z,28.07
2022-08-11T10:48:58.793Z,27.55
2022-08-11T10:51:50.986Z,27.12
2022-08-11T10:54:38.791Z,27.37
2022-08-11T10:57:24.322Z,28.53
2022-08-11T10:59:51.227Z,26.80
2022-08-11T11:02:19.331Z,26.70
2022-08-11T11:05:12.187Z,26.42
2022-08-11T11:07:55.233Z,25.20
2022-08-11T11:10:22.071Z,25.33
2022-08-11T11:13:13.436Z,25.65
2022-08-11T11:16:03.301Z,27.02
2022-08-11T11:18:37.295Z,26.50
2022-08-11T11:21:10.532Z,27.02
2022-08-11T11:23:47.455Z,27.05
2022-08-11T11:26:53.046Z,26.67
2022-08-11T11:29:58.307Z,25.68
2022-08-11T11:32:50.059Z,25.89
2022-08-11T11:35:44.835Z,26.86
2022-08-11T11:38:14.063Z,26.67
2022-08-11T11:40:42.664Z,26.88
2022-08-11T11:43:10.457Z,27.04
2022-08-11T11:45:37.656Z,26.78
2022-08-11T11:48:06.014Z,26.05
2022-08-11T11:50:37.914Z,26.75
2022-08-11T11:53:07.687Z,26.79
2022-08-11T11:55:35.517Z,27.28
2022-08-11T11:58:22.873Z,26.71
2022-08-11T12:01:09.752Z,25.36
2022-08-11T12:03:38.108Z,26.50
2022-08-11T12:06:07.032Z,26.40
2022-08-11T12:08:34.321Z,26.13
2022-08-11T12:11:25.219Z,26.22
2022-08-11T12:13:53.702Z,26.85
2022-08-11T12:16:33.465Z,26.53
2022-08-11T12:19:06.134Z,26.77
2022-08-11T12:21:36.059Z,26.74
2022-08-11T12:24:22.774Z,25.98
2022-08-11T12:27:17.831Z,25.84
2022-08-11T12:29:55.061Z,26.25
2022-08-11T12:32:26.070Z,27.51
2022-08-11T12:34:53.832Z,26.80
2022-08-11T12:37:24.794Z,26.03
2022-08-11T12:40:48.792Z,26.02
2022-08-11T12:43:37.754Z,25.68
2022-08-11T12:46:09.024Z,25.05
2022-08-11T12:49:02.534Z,25.86
2022-08-11T12:52:11.190Z,26.14
2022-08-11T12:54:52.193Z,26.10
2022-08-11T12:57:43.730Z,26.45
2022-08-11T13:00:30.062Z,26.47
2022-08-11T13:03:16.290Z,25.79
2022-08-11T13:05:46.195Z,26.34
2022-08-11T13:08:17.094Z,25.88
2022-08-11T13:11:04.336Z,26.00
2022-08-11T13:13:55.500Z,25.31
2022-08-11T13:16:20.754Z,25.50
2022-08-11T13:18:48.381Z,25.24
2022-08-11T13:21:20.339Z,25.13
2022-08-11T13:23:59.762Z,24.36
2022-08-11T13:26:47.315Z,24.09
2022-08-11T13:29:22.379Z,24.11
2022-08-11T13:31:50.605Z,24.68
2022-08-11T13:34:19.995Z,24.69
2022-08-11T13:36:50.460Z,24.18
2022-08-11T13:39:18.166Z,24.64
2022-08-11T13:41:47.953Z,24.65
2022-08-11T13:44:23.294Z,24.16
2022-08-11T13:46:52.951Z,24.44
2022-08-11T13:49:21.992Z,24.62
2022-08-11T13:51:49.138Z,24.71
2022-08-11T13:54:23.857Z,24.64
2022-08-11T13:56:54.773Z,23.99
2022-08-11T13:59:28.197Z,24.40
2022-08-11T14:02:28.054Z,24.91
2022-08-11T14:05:07.402Z,24.44
2022-08-11T14:07:40.182Z,24.96
2022-08-11T14:10:10.336Z,25.03
2022-08-11T14:12:57.304Z,25.04
2022-08-11T14:15:36.532Z,25.42
2022-08-11T14:18:07.265Z,25.77
2022-08-11T14:20:59.629Z,24.47
2022-08-11T14:23:35.723Z,24.20
2022-08-11T14:26:22.094Z,24.87
2022-08-11T14:28:50.093Z,24.87
2022-08-11T14:31:17.701Z,24.87
2022-08-11T14:33:59.747Z,24.34
2022-08-11T14:36:39.983Z,24.83
2022-08-11T14:39:21.340Z,25.00
2022-08-11T14:42:17.738Z,24.91
2022-08-11T14:45:07.084Z,24.98
2022-08-11T14:47:37.310Z,25.58
2022-08-11T14:50:11.887Z,24.56
2022-08-11T14:53:01.179Z,23.89
2022-08-11T14:55:49.022Z,23.69
2022-08-11T14:58:18.653Z,23.21
2022-08-11T15:00:46.144Z,22.98
2022-08-11T15:03:14.665Z,23.68
2022-08-11T15:05:57.335Z,23.85
2022-08-11T15:08:49.076Z,23.71
2022-08-11T15:11:37.699Z,23.75
2022-08-11T15:14:07.797Z,23.96
2022-08-11T15:16:56.018Z,24.12
2022-08-11T15:19:25.118Z,24.26
2022-08-11T15:22:10.885Z,24.03
2022-08-11T15:24:37.797Z,23.68
2022-08-11T15:27:36.661Z,23.32
2022-08-11T15:30:33.774Z,23.53
2022-08-11T15:33:30.783Z,23.75
2022-08-11T15:36:18.426Z,23.94
2022-08-11T15:38:55.776Z,24.25
2022-08-11T15:41:58.309Z,24.56
2022-08-11T15:45:02.022Z,24.76
2022-08-11T15:47:37.772Z,24.53
2022-08-11T15:50:10.387Z,24.50
2022-08-11T15:52:47.828Z,24.80
2022-08-11T15:55:16.187Z,24.50
2022-08-11T15:58:03.001Z,24.39
2022-08-11T16:00:48.615Z,24.49
2022-08-11T16:04:06.132Z,24.74
2022-08-11T16:06:33.893Z,24.90
2022-08-11T16:09:08.923Z,25.38
2022-08-11T16:11:46.581Z,25.86
2022-08-11T16:14:42.331Z,25.77
2022-08-11T16:17:11.966Z,26.00
2022-08-11T16:19:42.873Z,25.48
2022-08-11T16:22:12.452Z,25.27
2022-08-11T16:27:02.421Z,25.09
2022-08-11T16:27:35.377Z,25.71
2022-08-11T16:30:02.601Z,25.80
2022-08-11T16:32:32.030Z,25.78
2022-08-11T16:35:25.973Z,25.79
2022-08-11T16:38:13.432Z,26.29
2022-08-11T16:40:42.752Z,26.43
2022-08-11T16:43:33.677Z,26.21
2022-08-11T16:46:37.664Z,26.78
2022-08-11T16:49:07.358Z,26.73
2022-08-11T16:51:34.529Z,26.61
2022-08-11T16:54:05.446Z,26.82
2022-08-11T16:56:43.369Z,27.34
2022-08-11T16:59:34.231Z,27.31
2022-08-11T17:02:14.346Z,27.63
2022-08-11T17:05:09.143Z,27.44
2022-08-11T17:07:57.154Z,27.57
2022-08-11T17:10:56.620Z,27.88
2022-08-11T17:13:44.851Z,27.88
2022-08-11T17:16:13.765Z,27.82
2022-08-11T17:19:00.814Z,28.26
2022-08-11T17:22:09.422Z,27.72
2022-08-11T17:24:40.524Z,28.07
2022-08-11T17:27:09.777Z,28.22
2022-08-11T17:29:55.103Z,28.49
2022-08-11T17:32:56.934Z,28.39
2022-08-11T17:35:35.458Z,28.66
2022-08-11T17:38:06.814Z,28.58
2022-08-11T17:40:38.908Z,28.56
2022-08-11T17:43:28.486Z,28.69
2022-08-11T17:46:15.409Z,28.96
2022-08-11T17:48:47.456Z,29.40
2022-08-11T17:51:39.044Z,29.60
2022-08-11T17:54:26.333Z,29.75
2022-08-11T17:57:20.441Z,30.13
2022-08-11T17:59:52.939Z,30.36
2022-08-11T18:02:44.000Z,30.57
2022-08-11T18:05:13.736Z,30.82
2022-08-11T18:08:01.732Z,30.92
2022-08-11T18:10:49.531Z,31.16
2022-08-11T18:13:40.777Z,31.34
2022-08-11T18:16:27.823Z,31.58
2022-08-11T18:19:13.620Z,31.46
2022-08-11T18:22:14.313Z,31.77
2022-08-11T18:25:09.054Z,31.66
2022-08-11T18:27:56.946Z,31.95
2022-08-11T18:30:43.646Z,31.96
2022-08-11T18:36:44.961Z,32.55
2022-08-11T18:39:32.810Z,32.59
2022-08-11T18:42:29.431Z,32.61
2022-08-11T18:45:19.821Z,32.75
2022-08-11T18:48:09.322Z,32.83
2022-08-11T18:51:07.216Z,33.09
2022-08-11T18:54:07.806Z,33.42
2022-08-11T18:56:54.086Z,33.26
2022-08-11T18:59:44.473Z,33.37
2022-08-11T19:02:31.918Z,33.38
2022-08-11T19:06:37.008Z,33.71
2022-08-11T19:08:28.550Z,33.78
2022-08-11T19:11:15.885Z,34.53
2022-08-11T19:14:06.956Z,35.57
2022-08-11T19:16:55.010Z,36.00
2022-08-11T19:19:45.466Z,36.54
2022-08-11T19:22:33.800Z,37.01
2022-08-11T19:25:25.113Z,37.22
2022-08-11T19:28:12.925Z,37.73
2022-08-11T19:30:59.160Z,38.19
2022-08-11T19:34:09.898Z,38.68
2022-08-11T19:36:52.278Z,39.01
2022-08-11T19:39:40.709Z,39.41
2022-08-11T19:42:28.118Z,39.75
2022-08-11T19:45:15.453Z,40.26
2022-08-11T19:48:28.504Z,40.76
2022-08-11T19:51:11.382Z,41.33
2022-08-11T19:53:56.924Z,41.62
2022-08-11T19:56:42.829Z,41.38
2022-08-11T19:59:29.152Z,41.34
2022-08-11T20:02:14.876Z,40.51
2022-08-11T20:05:01.446Z,39.55
2022-08-11T20:07:48.754Z,39.69
2022-08-11T20:10:38.523Z,39.45
2022-08-11T20:13:26.910Z,39.81
2022-08-11T20:16:14.851Z,40.75
2022-08-11T20:19:02.424Z,41.20
2022-08-11T20:21:48.842Z,41.39
2022-08-11T20:24:36.685Z,41.57
2022-08-11T20:27:25.678Z,41.67
2022-08-11T20:30:13.126Z,41.52
2022-08-11T20:33:00.634Z,41.43
2022-08-11T20:35:48.094Z,42.25
2022-08-11T20:38:35.119Z,42.34
2022-08-11T20:41:22.567Z,42.18
2022-08-11T20:44:09.930Z,41.90
2022-08-11T20:46:58.029Z,41.63
2022-08-11T20:49:53.834Z,41.65
2022-08-11T20:52:47.190Z,41.68
2022-08-11T20:55:51.810Z,41.56
2022-08-11T21:01:46.379Z,41.70
2022-08-11T21:04:32.537Z,41.47
2022-08-11T21:07:28.599Z,41.73
2022-08-11T21:10:23.727Z,42.06
2022-08-11T21:13:25.152Z,42.23
2022-08-11T21:16:26.152Z,42.42
2022-08-11T21:19:59.548Z,42.77
2022-08-11T21:22:34.137Z,42.68
2022-08-11T21:25:22.974Z,42.37
2022-08-11T21:28:11.318Z,42.21
2022-08-11T21:30:58.230Z,41.40
2022-08-11T21:33:47.031Z,41.40
2022-08-11T21:36:33.670Z,41.00
2022-08-11T21:39:24.888Z,40.91
2022-08-11T21:42:15.428Z,40.92
2022-08-11T21:45:01.911Z,41.26
2022-08-11T21:48:01.078Z,41.29
2022-08-11T21:50:47.350Z,41.44
2022-08-11T21:53:33.968Z,41.60
2022-08-11T21:56:21.743Z,41.91
2022-08-11T21:59:12.246Z,41.63
2022-08-11T22:01:57.977Z,41.98
2022-08-11T22:04:44.204Z,42.17
2022-08-11T22:07:30.526Z,42.25
2022-08-11T22:10:32.015Z,42.43
2022-08-11T22:13:25.173Z,42.58
2022-08-11T22:16:10.534Z,42.76
2022-08-11T22:18:56.214Z,42.91
2022-08-11T22:22:03.294Z,43.31
2022-08-11T22:24:49.718Z,43.74
2022-08-11T22:27:35.029Z,43.97
2022-08-11T22:30:20.654Z,43.99
2022-08-11T22:33:06.531Z,44.04
2022-08-11T22:35:54.279Z,44.83
2022-08-11T22:38:40.647Z,44.63
2022-08-11T22:41:25.908Z,44.84
2022-08-11T22:44:11.359Z,45.04
2022-08-11T22:46:56.866Z,45.18
2022-08-11T22:49:57.814Z,45.58
2022-08-11T22:52:44.692Z,45.27
2022-08-11T22:55:31.410Z,45.87
2022-08-11T22:58:16.509Z,46.12
2022-08-11T23:01:02.544Z,46.41
2022-08-11T23:03:49.172Z,46.63
2022-08-11T23:06:35.519Z,46.51
2022-08-11T23:09:22.711Z,46.67
2022-08-11T23:12:10.470Z,46.59
2022-08-11T23:14:57.953Z,46.90
2022-08-11T23:17:43.977Z,46.77
2022-08-11T23:20:34.209Z,46.94
2022-08-11T23:23:24.191Z,47.19
2022-08-11T23:26:12.727Z,47.16
2022-08-11T23:29:05.140Z,47.07
2022-08-11T23:31:53.729Z,47.19
2022-08-11T23:35:04.910Z,47.51
2022-08-11T23:37:53.166Z,47.81
2022-08-11T23:40:38.515Z,47.78
2022-08-11T23:43:24.036Z,48.09
2022-08-11T23:46:09.267Z,48.47
2022-08-11T23:48:57.117Z,48.50
2022-08-11T23:51:44.404Z,48.69
2022-08-11T23:54:36.502Z,48.49
2022-08-11T23:57:23.565Z,48.91
